Multan International Airport
OPMT : now visible

Airfield :











YOU CAN JOIN US ON...

 
LOGIN :

Register | Disclaimer

   EN    FR    IT 

 









Legend :    VFR   Marginal VFR   IFR   Intensive IFR   Very Intensive IFR
Visi :
Ceiling :
>= 8 km
>= 3000ft
5 to 8 km
1000 to 3000 ft
1500m to 5 km
500 to 1000 ft
800 to 1500m
200 to 500 ft
< 800m
< 200 ft
Symbols :   Thunderstorms  Fog  Heavy snow  Heavy precipitations  Wind > 20 kt






- Airport Elevation : 403 ft
- IATA code : MUX


OPMT - Multan International

CURRENT METAR :
  • 251130Z 31004KT 4000 FU NSC 20/09 Q1014 NOSIG

EXPIRED METARs :
  • 251100Z 00000KT 4000 FU NSC 20/09 Q1014 NOSIG
  • 251030Z 00000KT 4000 FU NSC 20/09 Q1014 NOSIG
  • 251000Z 00000KT 3000 FU NSC 20/09 Q1015 NOSIG
  • 250930Z 31006KT 3000 FU NSC 20/09 Q1015 NOSIG
  • 250900Z 18004KT 2500 FU SCT100 20/09 Q1015 NOSIG

TAF TAF OPMT
Valid from the 25 at 12:00 until the 26 at 06:00 UTC


250945Z 2512/2606 18005KT 3000 FU FEW040 SCT100 TN07/2601
PROB30
TEMPO 2601/2605 00000KT 1500 BR FEW100



MET'MAP, your aeronautical weather chart ! - Copyright ORBIFLY December 2007 - Disclaimer

ORBIFLY MET'MAP TEAM :

Programming & Development : Alexandra Zaïnal
Concept & original design : Baudouin d'Aumeries
Assistance for programming : Marc-Olivier Méhu
Technical & hardware support : Manuel Goepfert

Contact : metmap@orbifly.com




SOURCES & CREDITS :

   NOAA       Earth
Advisory